createdAt,value
2019-06-20T00:00:33.098Z,100.00
2019-06-20T00:01:32.998Z,100.00
2019-06-20T00:02:33.320Z,100.00
2019-06-20T00:03:33.221Z,100.00
2019-06-20T00:04:33.733Z,100.00
2019-06-20T00:05:33.988Z,100.00
2019-06-20T00:06:34.383Z,100.00
2019-06-20T00:07:34.620Z,100.00
2019-06-20T00:08:34.786Z,100.00
2019-06-20T00:09:35.205Z,100.00
2019-06-20T00:10:35.756Z,100.00
2019-06-20T00:11:35.816Z,100.00
2019-06-20T00:12:35.188Z,100.00
2019-06-20T00:13:35.669Z,100.00
2019-06-20T00:14:36.134Z,100.00
2019-06-20T00:15:36.610Z,100.00
2019-06-20T00:16:36.785Z,100.00
2019-06-20T00:17:36.962Z,100.00
2019-06-20T00:18:37.403Z,100.00
2019-06-20T00:19:38.039Z,100.00
2019-06-20T00:20:37.491Z,100.00
2019-06-20T00:21:38.455Z,100.00
2019-06-20T00:22:38.575Z,100.00
2019-06-20T00:23:38.980Z,100.00
2019-06-20T00:24:39.282Z,100.00
2019-06-20T00:25:39.705Z,100.00
2019-06-20T00:26:39.705Z,100.00
2019-06-20T00:27:40.659Z,100.00
2019-06-20T00:28:41.187Z,100.00
2019-06-20T00:29:41.180Z,100.00
2019-06-20T00:30:41.503Z,100.00
2019-06-20T00:31:41.484Z,100.00
2019-06-20T00:33:41.868Z,100.00
2019-06-20T00:34:41.917Z,100.00
2019-06-20T00:35:42.131Z,100.00
2019-06-20T00:36:42.342Z,100.00
2019-06-20T00:37:42.235Z,100.00
2019-06-20T00:38:43.073Z,100.00
2019-06-20T00:39:43.206Z,100.00
2019-06-20T00:40:43.458Z,100.00
2019-06-20T00:41:43.604Z,100.00
2019-06-20T00:42:44.023Z,100.00
2019-06-20T00:43:44.160Z,100.00
2019-06-20T00:44:44.649Z,100.00
2019-06-20T00:45:44.775Z,100.00
2019-06-20T00:46:44.969Z,100.00
2019-06-20T00:47:45.485Z,100.00
2019-06-20T00:48:44.773Z,100.00
2019-06-20T00:49:45.502Z,100.00
2019-06-20T00:50:45.412Z,100.00
2019-06-20T00:51:46.047Z,100.00
2019-06-20T00:52:46.122Z,100.00
2019-06-20T00:53:46.447Z,100.00
2019-06-20T00:54:46.558Z,100.00
2019-06-20T00:55:46.468Z,100.00
2019-06-20T00:56:47.695Z,100.00
2019-06-20T00:57:47.602Z,100.00
2019-06-20T00:58:48.220Z,100.00
2019-06-20T00:59:48.283Z,100.00
2019-06-20T01:00:48.145Z,100.00
2019-06-20T01:01:48.001Z,100.00
2019-06-20T01:02:48.463Z,100.00
2019-06-20T01:03:49.292Z,100.00
2019-06-20T01:04:49.326Z,100.00
2019-06-20T01:05:50.015Z,100.00
2019-06-20T01:06:50.218Z,100.00
2019-06-20T01:07:50.446Z,100.00
2019-06-20T01:08:50.714Z,100.00
2019-06-20T01:09:51.217Z,100.00
2019-06-20T01:10:51.685Z,100.00
2019-06-20T01:11:52.206Z,100.00
2019-06-20T01:12:51.901Z,100.00
2019-06-20T01:13:52.940Z,100.00
2019-06-20T01:14:52.522Z,100.00
2019-06-20T01:15:52.231Z,100.00
2019-06-20T01:16:52.656Z,100.00
2019-06-20T01:17:53.060Z,100.00
2019-06-20T01:18:53.625Z,100.00
2019-06-20T01:19:52.969Z,100.00
2019-06-20T01:20:54.531Z,100.00
2019-06-20T01:21:54.109Z,100.00
2019-06-20T01:22:53.909Z,100.00
2019-06-20T01:23:54.632Z,100.00
2019-06-20T01:24:54.539Z,100.00
2019-06-20T01:25:54.773Z,100.00
2019-06-20T01:26:55.166Z,100.00
2019-06-20T01:27:55.578Z,100.00
2019-06-20T01:28:56.002Z,100.00
2019-06-20T01:29:56.415Z,100.00
2019-06-20T01:30:56.352Z,100.00
2019-06-20T01:31:57.360Z,100.00
2019-06-20T01:32:57.568Z,100.00
2019-06-20T01:33:57.362Z,100.00
2019-06-20T01:34:57.677Z,100.00
2019-06-20T01:35:57.997Z,100.00
2019-06-20T01:36:57.851Z,100.00
2019-06-20T01:37:58.213Z,100.00
2019-06-20T01:38:59.134Z,100.00
2019-06-20T01:39:59.026Z,100.00
2019-06-20T01:40:59.779Z,100.00
2019-06-20T01:42:00.310Z,100.00
2019-06-20T01:43:00.291Z,100.00
2019-06-20T01:44:00.911Z,100.00
2019-06-20T01:45:00.253Z,100.00
2019-06-20T01:46:01.351Z,100.00
2019-06-20T01:47:01.578Z,100.00
2019-06-20T01:48:01.968Z,100.00
2019-06-20T01:49:02.168Z,100.00
2019-06-20T01:50:02.693Z,100.00
2019-06-20T01:51:02.655Z,100.00
2019-06-20T01:52:02.910Z,100.00
2019-06-20T01:53:03.120Z,100.00
2019-06-20T01:54:03.263Z,100.00
2019-06-20T01:55:03.460Z,100.00
2019-06-20T01:56:03.659Z,100.00
2019-06-20T01:57:03.861Z,100.00
2019-06-20T01:58:03.813Z,100.00
2019-06-20T01:59:04.015Z,100.00
2019-06-20T02:00:04.135Z,100.00
2019-06-20T02:01:24.684Z,100.00
2019-06-20T02:02:04.518Z,100.00
2019-06-20T02:03:04.723Z,100.00
2019-06-20T02:04:05.217Z,100.00
2019-06-20T02:05:05.182Z,100.00
2019-06-20T02:06:05.470Z,100.00
2019-06-20T02:07:05.678Z,100.00
2019-06-20T02:08:06.286Z,100.00
2019-06-20T02:09:06.495Z,100.00
2019-06-20T02:10:06.207Z,100.00
2019-06-20T02:11:06.163Z,100.00
2019-06-20T02:12:06.738Z,100.00
2019-06-20T02:13:07.140Z,100.00
2019-06-20T02:14:07.797Z,100.00
2019-06-20T02:15:08.079Z,100.00
2019-06-20T02:16:07.831Z,100.00
2019-06-20T02:17:07.884Z,100.00
2019-06-20T02:18:08.503Z,100.00
2019-06-20T02:19:08.408Z,100.00
2019-06-20T02:20:08.823Z,100.00
2019-06-20T02:21:09.131Z,100.00
2019-06-20T02:22:09.494Z,100.00
2019-06-20T02:23:09.663Z,100.00
2019-06-20T02:24:09.977Z,100.00
2019-06-20T02:25:10.600Z,100.00
2019-06-20T02:26:10.102Z,100.00
2019-06-20T02:27:10.096Z,100.00
2019-06-20T02:28:10.205Z,100.00
2019-06-20T02:29:10.205Z,100.00
2019-06-20T02:30:10.843Z,100.00
2019-06-20T02:31:10.886Z,100.00
2019-06-20T02:32:11.268Z,100.00
2019-06-20T02:33:11.461Z,100.00
2019-06-20T02:34:11.683Z,100.00
2019-06-20T02:35:12.510Z,100.00
2019-06-20T02:36:12.173Z,100.00
2019-06-20T02:37:12.141Z,100.00
2019-06-20T02:38:12.633Z,100.00
2019-06-20T02:39:12.033Z,100.00
2019-06-20T02:40:12.846Z,100.00
2019-06-20T02:41:13.470Z,100.00
2019-06-20T02:42:13.081Z,100.00
2019-06-20T02:43:12.988Z,100.00
2019-06-20T02:44:29.293Z,100.00
2019-06-20T02:45:14.102Z,100.00
2019-06-20T02:46:14.121Z,100.00
2019-06-20T02:47:13.619Z,100.00
2019-06-20T02:48:14.548Z,100.00
2019-06-20T02:49:14.953Z,100.00
2019-06-20T02:50:15.378Z,100.00
2019-06-20T02:51:15.676Z,100.00
2019-06-20T02:52:15.670Z,100.00
2019-06-20T02:53:16.007Z,100.00
2019-06-20T02:54:16.320Z,100.00
2019-06-20T02:55:16.739Z,100.00
2019-06-20T02:56:17.048Z,100.00
2019-06-20T02:57:17.164Z,100.00
2019-06-20T02:58:17.371Z,100.00
2019-06-20T02:59:17.208Z,100.00
2019-06-20T03:00:18.208Z,100.00
2019-06-20T03:01:18.520Z,100.00
2019-06-20T03:02:18.120Z,100.00
2019-06-20T03:03:18.430Z,100.00
2019-06-20T03:04:18.629Z,100.00
2019-06-20T03:05:19.300Z,100.00
2019-06-20T03:06:19.272Z,100.00
2019-06-20T03:07:19.586Z,100.00
2019-06-20T03:08:19.983Z,100.00
2019-06-20T03:09:20.211Z,100.00
2019-06-20T03:10:20.631Z,100.00
2019-06-20T03:11:20.096Z,100.00
2019-06-20T03:12:20.733Z,100.00
2019-06-20T03:13:21.156Z,100.00
2019-06-20T03:14:21.260Z,100.00
2019-06-20T03:15:21.574Z,100.00
2019-06-20T03:16:21.778Z,100.00
2019-06-20T03:17:21.913Z,100.00
2019-06-20T03:18:22.318Z,100.00
2019-06-20T03:19:22.521Z,100.00
2019-06-20T03:20:22.825Z,100.00
2019-06-20T03:21:23.048Z,100.00
2019-06-20T03:22:23.463Z,100.00
2019-06-20T03:23:23.993Z,100.00
2019-06-20T03:24:23.885Z,100.00
2019-06-20T03:25:24.331Z,100.00
2019-06-20T03:26:24.597Z,100.00
2019-06-20T03:27:24.906Z,100.00
2019-06-20T03:28:25.570Z,100.00
2019-06-20T03:29:25.462Z,100.00
2019-06-20T03:30:25.970Z,100.00
2019-06-20T03:31:26.602Z,100.00
2019-06-20T03:32:26.501Z,100.00
2019-06-20T03:33:26.832Z,100.00
2019-06-20T03:34:27.338Z,100.00
2019-06-20T03:35:27.439Z,100.00
2019-06-20T03:36:27.854Z,100.00
2019-06-20T03:37:27.761Z,100.00
2019-06-20T03:38:27.981Z,100.00
2019-06-20T03:39:28.498Z,100.00
2019-06-20T03:40:28.179Z,100.00
2019-06-20T03:41:28.504Z,100.00
2019-06-20T03:42:28.921Z,100.00
2019-06-20T03:43:29.336Z,100.00
2019-06-20T03:44:29.453Z,100.00
2019-06-20T03:45:29.871Z,100.00
2019-06-20T03:46:30.381Z,100.00
2019-06-20T03:47:30.393Z,100.00
2019-06-20T03:48:31.011Z,100.00
2019-06-20T03:49:31.229Z,100.00
2019-06-20T03:50:31.215Z,100.00
2019-06-20T03:51:32.051Z,100.00
2019-06-20T03:52:32.371Z,100.00
2019-06-20T03:53:32.242Z,100.00
2019-06-20T03:54:33.015Z,100.00
2019-06-20T03:55:33.405Z,100.00
2019-06-20T03:56:33.733Z,100.00
2019-06-20T03:57:34.035Z,100.00
2019-06-20T03:58:34.459Z,100.00
2019-06-20T03:59:34.671Z,100.00
2019-06-20T04:00:34.980Z,100.00
2019-06-20T04:01:35.087Z,100.00
2019-06-20T04:02:35.505Z,100.00
2019-06-20T04:03:35.613Z,100.00
2019-06-20T04:04:35.932Z,100.00
2019-06-20T04:05:35.779Z,100.00
2019-06-20T04:06:36.668Z,100.00
2019-06-20T04:07:36.869Z,100.00
2019-06-20T04:08:37.186Z,100.00
2019-06-20T04:09:37.041Z,100.00
2019-06-20T04:10:38.217Z,100.00
2019-06-20T04:11:37.816Z,100.00
2019-06-20T04:12:37.840Z,100.00
2019-06-20T04:13:37.937Z,100.00
2019-06-20T04:14:38.146Z,100.00
2019-06-20T04:15:38.165Z,100.00
2019-06-20T04:16:38.873Z,100.00
2019-06-20T04:17:39.490Z,100.00
2019-06-20T04:18:39.400Z,100.00
2019-06-20T04:19:39.404Z,100.00
2019-06-20T04:20:39.628Z,100.00
2019-06-20T04:21:39.828Z,100.00
2019-06-20T04:22:40.351Z,100.00
2019-06-20T04:23:40.659Z,100.00
2019-06-20T04:24:40.996Z,100.00
2019-06-20T04:25:42.525Z,100.00
2019-06-20T04:26:40.999Z,100.00
2019-06-20T04:27:41.505Z,100.00
2019-06-20T04:28:41.528Z,100.00
2019-06-20T04:29:42.246Z,100.00
2019-06-20T04:30:42.249Z,100.00
2019-06-20T04:31:42.660Z,100.00
2019-06-20T04:32:42.871Z,100.00
2019-06-20T04:33:42.831Z,100.00
2019-06-20T04:34:43.302Z,100.00
2019-06-20T04:35:44.168Z,100.00
2019-06-20T04:36:44.078Z,100.00
2019-06-20T04:37:44.658Z,100.00
2019-06-20T04:38:45.053Z,100.00
2019-06-20T04:39:45.484Z,100.00
2019-06-20T04:40:45.703Z,100.00
2019-06-20T04:41:46.044Z,100.00
2019-06-20T04:42:46.206Z,100.00
2019-06-20T04:43:46.074Z,100.00
2019-06-20T04:44:46.733Z,100.00
2019-06-20T04:45:46.963Z,100.00
2019-06-20T04:46:46.964Z,100.00
2019-06-20T04:47:47.181Z,100.00
2019-06-20T04:48:47.605Z,100.00
2019-06-20T04:49:47.999Z,100.00
2019-06-20T04:50:48.518Z,100.00
2019-06-20T04:51:48.435Z,100.00
2019-06-20T04:52:48.738Z,100.00
2019-06-20T04:53:48.932Z,100.00
2019-06-20T04:54:49.159Z,100.00
2019-06-20T04:55:49.034Z,100.00
2019-06-20T04:56:49.412Z,100.00
2019-06-20T04:57:49.997Z,100.00
2019-06-20T04:58:50.511Z,100.00
2019-06-20T04:59:50.504Z,100.00
2019-06-20T05:00:50.420Z,100.00
2019-06-20T05:01:50.317Z,100.00
2019-06-20T05:02:50.952Z,100.00
2019-06-20T05:03:51.055Z,100.00
2019-06-20T05:04:51.676Z,100.00
2019-06-20T05:05:51.584Z,100.00
2019-06-20T05:06:51.595Z,100.00
2019-06-20T05:07:52.097Z,100.00
2019-06-20T05:08:52.113Z,100.00
2019-06-20T05:09:52.315Z,100.00
2019-06-20T05:10:52.330Z,100.00
2019-06-20T05:11:52.649Z,100.00
2019-06-20T05:12:55.826Z,100.00
2019-06-20T05:13:53.067Z,100.00
2019-06-20T05:14:53.387Z,100.00
2019-06-20T05:15:53.699Z,100.00
2019-06-20T05:16:54.304Z,100.00
2019-06-20T05:17:54.118Z,100.00
2019-06-20T05:18:54.228Z,100.00
2019-06-20T05:19:54.310Z,100.00
2019-06-20T05:20:54.085Z,100.00
2019-06-20T05:21:55.056Z,100.00
2019-06-20T05:22:55.309Z,100.00
2019-06-20T05:23:55.830Z,100.00
2019-06-20T05:24:56.210Z,100.00
2019-06-20T05:25:56.730Z,100.00
2019-06-20T05:26:56.638Z,100.00
2019-06-20T05:27:56.870Z,100.00
2019-06-20T05:28:57.282Z,100.00
2019-06-20T05:29:57.780Z,100.00
2019-06-20T05:30:57.789Z,100.00
2019-06-20T05:31:58.162Z,100.00
2019-06-20T05:32:58.933Z,100.00
2019-06-20T05:33:59.137Z,100.00
2019-06-20T05:35:02.895Z,100.00
2019-06-20T05:35:59.661Z,100.00
2019-06-20T05:37:00.071Z,100.00
2019-06-20T05:38:00.196Z,100.00
2019-06-20T05:39:00.708Z,100.00
2019-06-20T05:40:00.401Z,100.00
2019-06-20T05:41:01.119Z,100.00
2019-06-20T05:42:01.238Z,100.00
2019-06-20T05:43:01.408Z,100.00
2019-06-20T05:44:01.768Z,100.00
2019-06-20T05:45:02.388Z,100.00
2019-06-20T05:46:09.694Z,100.00
2019-06-20T05:47:12.407Z,100.00
2019-06-20T05:48:03.012Z,100.00
2019-06-20T05:49:03.356Z,100.00
2019-06-20T05:50:03.234Z,100.00
2019-06-20T05:51:03.814Z,100.00
2019-06-20T05:52:05.711Z,100.00
2019-06-20T05:53:05.619Z,100.00
2019-06-20T05:54:05.481Z,100.00
2019-06-20T05:55:05.020Z,100.00
2019-06-20T05:56:05.631Z,100.00
2019-06-20T05:57:04.924Z,100.00
2019-06-20T05:58:05.549Z,100.00
2019-06-20T05:59:05.468Z,100.00
2019-06-20T06:00:05.864Z,100.00
2019-06-20T06:01:06.299Z,100.00
2019-06-20T06:02:06.465Z,100.00
2019-06-20T06:03:07.305Z,100.00
2019-06-20T06:04:06.636Z,100.00
2019-06-20T06:05:07.240Z,100.00
2019-06-20T06:06:06.840Z,100.00
2019-06-20T06:07:07.453Z,100.00
2019-06-20T06:08:07.861Z,100.00
2019-06-20T06:09:07.780Z,100.00
2019-06-20T06:10:08.184Z,100.00
2019-06-20T06:11:08.802Z,100.00
2019-06-20T06:12:08.183Z,100.00
2019-06-20T06:13:08.918Z,100.00
2019-06-20T06:14:09.135Z,100.00
2019-06-20T06:15:09.239Z,100.00
2019-06-20T06:16:25.163Z,100.00
2019-06-20T06:17:09.866Z,100.00
2019-06-20T06:18:09.564Z,100.00
2019-06-20T06:19:09.474Z,100.00
2019-06-20T06:20:10.184Z,100.00
2019-06-20T06:21:10.696Z,100.00
2019-06-20T06:22:10.859Z,100.00
2019-06-20T06:23:10.765Z,100.00
2019-06-20T06:24:11.661Z,100.00
2019-06-20T06:25:12.073Z,100.00
2019-06-20T06:26:12.487Z,100.00
2019-06-20T06:27:12.900Z,100.00
2019-06-20T06:28:13.317Z,100.00
2019-06-20T06:29:13.028Z,100.00
2019-06-20T06:30:13.339Z,100.00
2019-06-20T06:31:13.333Z,100.00
2019-06-20T06:33:14.272Z,100.00
2019-06-20T06:34:14.795Z,100.00
2019-06-20T06:35:14.796Z,100.00
2019-06-20T06:36:15.263Z,100.00
2019-06-20T06:37:15.321Z,100.00
2019-06-20T06:38:21.961Z,100.00
2019-06-20T06:39:15.564Z,100.00
2019-06-20T06:40:16.371Z,100.00
2019-06-20T06:41:15.858Z,100.00
2019-06-20T06:42:16.273Z,100.00
2019-06-20T06:43:16.592Z,100.00
2019-06-20T06:44:16.622Z,100.00
2019-06-20T06:45:16.876Z,100.00
2019-06-20T06:46:17.733Z,100.00
2019-06-20T06:47:18.112Z,100.00
2019-06-20T06:48:18.353Z,100.00
2019-06-20T06:49:18.918Z,100.00
2019-06-20T06:50:18.822Z,100.00
2019-06-20T06:51:19.304Z,100.00
2019-06-20T06:52:19.782Z,100.00
2019-06-20T06:53:20.036Z,100.00
2019-06-20T06:54:19.841Z,100.00
2019-06-20T06:55:20.674Z,100.00
2019-06-20T06:56:21.441Z,100.00
2019-06-20T06:57:21.497Z,100.00
2019-06-20T06:58:21.297Z,100.00
2019-06-20T06:59:21.617Z,100.00
2019-06-20T07:00:22.033Z,100.00
2019-06-20T07:01:22.344Z,100.00
2019-06-20T07:02:22.346Z,100.00
2019-06-20T07:03:23.273Z,100.00
2019-06-20T07:04:23.379Z,100.00
2019-06-20T07:05:23.808Z,100.00
2019-06-20T07:06:24.061Z,100.00
2019-06-20T07:07:24.439Z,100.00
2019-06-20T07:08:24.454Z,100.00
2019-06-20T07:09:25.054Z,100.00
2019-06-20T07:10:24.787Z,100.00
2019-06-20T07:11:25.911Z,100.00
2019-06-20T07:12:25.382Z,100.00
2019-06-20T07:13:25.899Z,100.00
2019-06-20T07:14:26.110Z,100.00
2019-06-20T07:15:26.538Z,100.00
2019-06-20T07:16:27.333Z,100.00
2019-06-20T07:17:27.255Z,100.00
2019-06-20T07:18:27.364Z,100.00
2019-06-20T07:19:27.274Z,100.00
2019-06-20T07:20:28.004Z,100.00
2019-06-20T07:21:28.419Z,100.00
2019-06-20T07:22:28.824Z,100.00
2019-06-20T07:23:29.240Z,100.00
2019-06-20T07:24:29.146Z,100.00
2019-06-20T07:25:29.775Z,100.00
2019-06-20T07:26:29.980Z,100.00
2019-06-20T07:27:30.600Z,100.00
2019-06-20T07:28:30.368Z,100.00
2019-06-20T07:29:30.922Z,100.00
2019-06-20T07:30:30.815Z,100.00
2019-06-20T07:31:30.629Z,100.00
2019-06-20T07:32:31.145Z,100.00
2019-06-20T07:33:30.843Z,100.00
2019-06-20T07:34:31.360Z,100.00
2019-06-20T07:35:31.827Z,100.00
2019-06-20T07:36:31.243Z,100.00
2019-06-20T07:37:32.307Z,100.00
2019-06-20T07:38:32.520Z,100.00
2019-06-20T07:39:32.634Z,100.00
2019-06-20T07:40:32.216Z,100.00
2019-06-20T07:41:32.230Z,100.00
2019-06-20T07:42:32.781Z,100.00
2019-06-20T07:43:32.366Z,100.00
2019-06-20T07:44:32.763Z,100.00
2019-06-20T07:45:32.875Z,100.00
2019-06-20T07:46:33.388Z,100.00
2019-06-20T07:48:33.963Z,100.00
2019-06-20T07:49:33.840Z,100.00
2019-06-20T07:50:34.444Z,100.00
2019-06-20T07:51:34.260Z,100.00
2019-06-20T07:52:34.659Z,100.00
2019-06-20T07:53:34.865Z,100.00
2019-06-20T07:54:35.199Z,100.00
2019-06-20T07:55:35.627Z,100.00
2019-06-20T07:56:36.127Z,100.00
2019-06-20T07:57:35.523Z,100.00
2019-06-20T07:58:36.021Z,100.00
2019-06-20T07:59:36.854Z,100.00
2019-06-20T08:00:36.960Z,100.00
2019-06-20T08:01:37.578Z,100.00
2019-06-20T08:02:37.180Z,100.00
2019-06-20T08:03:37.377Z,100.00
2019-06-20T08:04:37.310Z,100.00
2019-06-20T08:05:38.370Z,100.00
2019-06-20T08:06:37.976Z,100.00
2019-06-20T08:07:38.649Z,100.00
2019-06-20T08:08:38.052Z,100.00
2019-06-20T08:09:44.809Z,100.00
2019-06-20T08:10:38.826Z,100.00
2019-06-20T08:11:39.711Z,100.00
2019-06-20T08:12:39.926Z,100.00
2019-06-20T08:13:40.436Z,100.00
2019-06-20T08:14:40.539Z,100.00
2019-06-20T08:15:40.857Z,100.00
2019-06-20T08:16:41.170Z,100.00
2019-06-20T08:17:41.272Z,100.00
2019-06-20T08:18:41.162Z,100.00
2019-06-20T08:19:42.103Z,100.00
2019-06-20T08:20:42.229Z,100.00
2019-06-20T08:21:44.212Z,100.00
2019-06-20T08:22:42.952Z,100.00
2019-06-20T08:23:43.771Z,100.00
2019-06-20T08:24:43.742Z,100.00
2019-06-20T08:25:44.596Z,100.00
2019-06-20T08:26:44.503Z,100.00
2019-06-20T08:27:44.931Z,100.00
2019-06-20T08:28:44.928Z,100.00
2019-06-20T08:29:44.979Z,100.00
2019-06-20T08:30:45.560Z,100.00
2019-06-20T08:31:45.859Z,100.00
2019-06-20T08:32:45.653Z,100.00
2019-06-20T08:33:45.989Z,100.00
2019-06-20T08:34:46.405Z,100.00
2019-06-20T08:35:46.246Z,100.00
2019-06-20T08:36:46.752Z,100.00
2019-06-20T08:37:47.043Z,100.00
2019-06-20T08:38:47.156Z,100.00
2019-06-20T08:39:47.001Z,100.00
2019-06-20T08:40:47.463Z,100.00
2019-06-20T08:41:48.190Z,100.00
2019-06-20T08:42:48.314Z,100.00
2019-06-20T08:43:48.888Z,100.00
2019-06-20T08:44:48.719Z,100.00
2019-06-20T08:45:48.927Z,100.00
2019-06-20T08:46:49.450Z,99.53
2019-06-20T08:47:49.358Z,98.75
2019-06-20T08:48:49.685Z,98.12
2019-06-20T08:49:50.082Z,97.63
2019-06-20T08:50:50.202Z,97.39
2019-06-20T08:51:50.312Z,97.96
2019-06-20T08:52:50.572Z,98.33
2019-06-20T08:53:50.927Z,98.12
2019-06-20T08:54:51.444Z,98.12
2019-06-20T08:55:51.470Z,97.47
2019-06-20T08:56:51.763Z,96.40
2019-06-20T08:57:52.457Z,96.25
2019-06-20T08:58:52.703Z,95.70
2019-06-20T08:59:52.313Z,95.16
2019-06-20T09:00:55.355Z,96.38
2019-06-20T09:01:56.487Z,95.08
2019-06-20T09:02:54.057Z,95.64
2019-06-20T09:03:55.265Z,96.75
2019-06-20T09:04:55.206Z,96.87
2019-06-20T09:05:55.448Z,96.50
2019-06-20T09:06:55.735Z,94.33
2019-06-20T09:07:55.355Z,90.50
2019-06-20T09:08:56.578Z,86.86
2019-06-20T09:09:55.874Z,89.60
2019-06-20T09:10:55.730Z,88.70
2019-06-20T09:11:56.522Z,87.96
2019-06-20T09:12:57.059Z,87.36
2019-06-20T09:13:57.198Z,87.58
2019-06-20T09:14:56.892Z,88.27
2019-06-20T09:15:57.081Z,85.63
2019-06-20T09:16:56.921Z,85.77
2019-06-20T09:17:58.492Z,85.94
2019-06-20T09:18:58.406Z,83.36
2019-06-20T09:19:58.470Z,79.84
2019-06-20T09:20:58.191Z,77.55
2019-06-20T09:22:00.362Z,76.72
2019-06-20T09:22:58.935Z,78.18
2019-06-20T09:23:59.929Z,77.99
2019-06-20T09:24:59.211Z,77.11
2019-06-20T09:25:59.684Z,78.47
2019-06-20T09:26:59.524Z,76.68
2019-06-20T09:28:00.489Z,79.40
2019-06-20T09:29:00.326Z,80.23
2019-06-20T09:30:00.793Z,80.60
2019-06-20T09:31:00.248Z,75.57
2019-06-20T09:32:01.213Z,73.94
2019-06-20T09:33:01.732Z,71.29
2019-06-20T09:34:05.249Z,70.26
2019-06-20T09:35:02.971Z,69.73
2019-06-20T09:36:01.958Z,72.29
2019-06-20T09:37:03.934Z,74.18
2019-06-20T09:38:03.446Z,72.13
2019-06-20T09:39:03.829Z,71.02
2019-06-20T09:40:03.705Z,70.86
2019-06-20T09:41:03.570Z,72.57
2019-06-20T09:42:04.129Z,72.55
2019-06-20T09:43:04.364Z,69.65
2019-06-20T09:44:04.267Z,71.41
2019-06-20T09:45:04.711Z,72.02
2019-06-20T09:46:05.241Z,71.89
2019-06-20T09:47:05.062Z,72.88
2019-06-20T09:48:05.411Z,73.07
2019-06-20T09:49:05.685Z,72.26
2019-06-20T09:50:06.061Z,70.39
2019-06-20T09:51:06.282Z,71.92
2019-06-20T09:52:06.469Z,72.64
2019-06-20T09:54:06.904Z,72.66
2019-06-20T09:55:07.099Z,72.41
2019-06-20T09:56:07.617Z,70.94
2019-06-20T09:57:08.132Z,71.82
2019-06-20T09:58:08.203Z,72.23
2019-06-20T09:59:08.261Z,70.89
2019-06-20T10:00:10.542Z,71.14
2019-06-20T10:01:08.468Z,72.19
2019-06-20T10:02:08.675Z,68.69
2019-06-20T10:03:09.295Z,70.24
2019-06-20T10:04:09.208Z,70.49
2019-06-20T10:05:09.837Z,70.65
2019-06-20T10:06:13.779Z,71.37
2019-06-20T10:07:10.055Z,70.27
2019-06-20T10:08:10.509Z,67.24
2019-06-20T10:09:10.368Z,69.33
2019-06-20T10:10:11.182Z,69.16
2019-06-20T10:12:11.228Z,68.02
2019-06-20T10:13:11.933Z,66.81
2019-06-20T10:14:11.932Z,66.94
2019-06-20T10:15:12.461Z,64.45
2019-06-20T10:16:12.506Z,63.27
2019-06-20T10:17:12.890Z,64.22
2019-06-20T10:18:13.303Z,64.49
2019-06-20T10:19:13.595Z,64.92
2019-06-20T10:20:14.244Z,64.58
2019-06-20T10:21:14.342Z,65.78
2019-06-20T10:22:14.158Z,65.65
2019-06-20T10:23:14.564Z,65.78
2019-06-20T10:24:14.985Z,65.75
2019-06-20T10:27:15.204Z,66.02
2019-06-20T10:28:15.715Z,64.29
2019-06-20T10:29:15.629Z,64.91
2019-06-20T10:30:16.350Z,65.53
2019-06-20T10:31:15.808Z,66.06
2019-06-20T10:32:16.970Z,65.45
2019-06-20T10:33:16.380Z,65.79
2019-06-20T10:34:17.085Z,65.94
2019-06-20T10:35:17.398Z,64.86
2019-06-20T10:36:17.812Z,63.62
2019-06-20T10:37:18.330Z,63.07
2019-06-20T10:38:18.135Z,62.77
2019-06-20T10:39:18.661Z,63.92
2019-06-20T10:40:18.568Z,64.24
2019-06-20T10:41:18.869Z,63.08
2019-06-20T10:42:19.286Z,63.61
2019-06-20T10:43:19.585Z,62.93
2019-06-20T10:49:20.451Z,62.88
2019-06-20T10:50:20.372Z,60.47
2019-06-20T10:51:20.674Z,60.82
2019-06-20T10:52:21.092Z,59.79
2019-06-20T10:53:21.508Z,58.86
2019-06-20T10:54:21.618Z,56.28
2019-06-20T10:55:21.940Z,55.70
2019-06-20T10:56:22.026Z,55.77
2019-06-20T10:57:22.155Z,56.23
2019-06-20T10:58:22.255Z,56.26
2019-06-20T10:59:22.669Z,56.84
2019-06-20T11:00:30.898Z,57.17
2019-06-20T11:01:27.226Z,57.84
2019-06-20T11:02:24.125Z,57.71
2019-06-20T11:03:26.687Z,56.25
2019-06-20T11:04:23.934Z,56.49
2019-06-20T11:05:24.351Z,56.30
2019-06-20T11:06:24.571Z,55.10
2019-06-20T11:07:24.879Z,51.87
2019-06-20T11:08:25.085Z,49.87
2019-06-20T11:09:25.089Z,48.13
2019-06-20T11:10:25.816Z,48.63
2019-06-20T11:11:25.624Z,49.43
2019-06-20T11:12:26.030Z,49.49
2019-06-20T11:13:26.472Z,49.75
2019-06-20T11:14:26.997Z,49.30
2019-06-20T11:15:27.407Z,50.42
2019-06-20T11:16:28.033Z,50.49
2019-06-20T11:17:28.073Z,47.20
2019-06-20T11:18:28.032Z,46.29
2019-06-20T11:19:28.946Z,45.41
2019-06-20T11:20:29.600Z,45.98
2019-06-20T11:21:29.480Z,45.03
2019-06-20T11:22:29.782Z,45.14
2019-06-20T11:23:30.202Z,45.11
2019-06-20T11:24:30.615Z,44.94
2019-06-20T11:25:31.033Z,43.83
2019-06-20T11:26:31.156Z,44.87
2019-06-20T11:27:31.765Z,45.77
2019-06-20T11:28:31.781Z,46.46
2019-06-20T11:29:32.287Z,46.42
2019-06-20T11:30:48.264Z,46.92
2019-06-20T11:31:34.895Z,47.52
2019-06-20T11:32:34.954Z,47.61
2019-06-20T11:33:36.733Z,44.89
2019-06-20T11:35:36.134Z,43.41
2019-06-20T11:36:37.026Z,46.10
2019-06-20T11:37:36.470Z,46.99
2019-06-20T11:38:36.330Z,46.35
2019-06-20T11:39:37.389Z,44.30
2019-06-20T11:40:38.094Z,43.30
2019-06-20T11:41:38.075Z,42.23
2019-06-20T11:42:37.807Z,41.58
2019-06-20T11:43:38.357Z,42.55
2019-06-20T11:44:37.407Z,43.71
2019-06-20T11:45:38.918Z,43.87
2019-06-20T11:46:38.607Z,44.74
2019-06-20T11:47:38.538Z,43.95
2019-06-20T11:48:38.745Z,43.77
2019-06-20T11:49:40.364Z,44.08
2019-06-20T11:50:39.991Z,44.49
2019-06-20T11:51:39.853Z,45.37
2019-06-20T11:52:42.436Z,46.87
2019-06-20T11:53:40.675Z,47.62
2019-06-20T11:54:42.461Z,48.87
2019-06-20T11:55:40.635Z,49.65
2019-06-20T11:56:41.785Z,50.57
2019-06-20T11:57:41.611Z,51.82
2019-06-20T11:58:42.196Z,52.17
2019-06-20T11:59:42.103Z,52.44
2019-06-20T12:00:42.821Z,52.17
2019-06-20T12:01:42.871Z,52.35
2019-06-20T12:02:44.069Z,52.44
2019-06-20T12:03:43.046Z,51.35
2019-06-20T12:04:44.950Z,51.29
2019-06-20T12:05:44.800Z,49.82
2019-06-20T12:06:44.950Z,48.18
2019-06-20T12:07:45.518Z,48.50
2019-06-20T12:08:45.201Z,46.77
2019-06-20T12:09:44.514Z,44.63
2019-06-20T12:10:45.223Z,43.07
2019-06-20T12:11:45.246Z,42.55
2019-06-20T12:12:45.050Z,41.84
2019-06-20T12:13:46.511Z,40.62
2019-06-20T12:14:46.756Z,40.34
2019-06-20T12:15:46.661Z,39.03
2019-06-20T12:16:46.467Z,40.86
2019-06-20T12:17:47.217Z,39.44
2019-06-20T12:18:47.352Z,40.87
2019-06-20T12:19:48.736Z,39.33
2019-06-20T12:20:48.728Z,37.90
2019-06-20T12:21:49.102Z,37.66
2019-06-20T12:22:50.543Z,38.11
2019-06-20T12:23:49.004Z,38.27
2019-06-20T12:24:48.901Z,39.07
2019-06-20T12:25:48.880Z,39.71
2019-06-20T12:26:48.823Z,39.59
2019-06-20T12:27:49.588Z,39.71
2019-06-20T12:28:49.145Z,39.74
2019-06-20T12:29:49.404Z,40.46
2019-06-20T12:30:50.437Z,40.45
2019-06-20T12:31:49.473Z,37.98
2019-06-20T12:32:49.713Z,38.31
2019-06-20T12:33:49.792Z,39.63
2019-06-20T12:34:50.006Z,40.42
2019-06-20T12:35:49.878Z,40.77
2019-06-20T12:36:50.428Z,40.81
2019-06-20T12:37:52.080Z,40.51
2019-06-20T12:38:50.988Z,39.68
2019-06-20T12:39:50.930Z,38.15
2019-06-20T12:40:51.890Z,38.35
2019-06-20T12:41:52.304Z,39.47
2019-06-20T12:42:52.627Z,39.55
2019-06-20T12:43:52.841Z,40.30
2019-06-20T12:44:53.350Z,40.46
2019-06-20T12:45:53.457Z,40.13
2019-06-20T12:46:53.480Z,40.97
2019-06-20T12:47:53.171Z,41.37
2019-06-20T12:48:53.580Z,42.52
2019-06-20T12:49:54.112Z,43.15
2019-06-20T12:50:54.102Z,45.69
2019-06-20T12:51:54.426Z,52.65